sensor_id;sensor_type;location;lat;lon;timestamp;P1;durP1;ratioP1;P2;durP2;ratioP2
18596;SDS011;9428;50.950;6.912;2024-02-16T00:02:45;4.55;;;1.63;;
18596;SDS011;9428;50.950;6.912;2024-02-16T00:05:32;2.28;;;1.52;;
18596;SDS011;9428;50.950;6.912;2024-02-16T00:08:22;3.25;;;1.90;;
18596;SDS011;9428;50.950;6.912;2024-02-16T00:11:10;3.90;;;2.00;;
18596;SDS011;9428;50.950;6.912;2024-02-16T00:13:58;3.47;;;1.55;;
18596;SDS011;9428;50.950;6.912;2024-02-16T00:16:45;5.53;;;2.25;;
18596;SDS011;9428;50.950;6.912;2024-02-16T00:19:34;4.97;;;2.42;;
18596;SDS011;9428;50.950;6.912;2024-02-16T00:22:24;5.18;;;2.00;;
18596;SDS011;9428;50.950;6.912;2024-02-16T00:25:13;4.22;;;2.03;;
18596;SDS011;9428;50.950;6.912;2024-02-16T00:28:00;4.07;;;1.83;;
18596;SDS011;9428;50.950;6.912;2024-02-16T00:30:48;6.05;;;2.13;;
18596;SDS011;9428;50.950;6.912;2024-02-16T00:33:39;3.60;;;1.77;;
18596;SDS011;9428;50.950;6.912;2024-02-16T00:36:28;3.53;;;1.90;;
18596;SDS011;9428;50.950;6.912;2024-02-16T00:39:16;4.57;;;2.00;;
18596;SDS011;9428;50.950;6.912;2024-02-16T00:42:05;3.83;;;1.70;;
18596;SDS011;9428;50.950;6.912;2024-02-16T00:44:52;4.53;;;1.75;;
18596;SDS011;9428;50.950;6.912;2024-02-16T00:47:40;2.25;;;1.73;;
18596;SDS011;9428;50.950;6.912;2024-02-16T00:50:27;4.28;;;2.03;;
18596;SDS011;9428;50.950;6.912;2024-02-16T00:53:15;2.63;;;1.70;;
18596;SDS011;9428;50.950;6.912;2024-02-16T00:56:02;5.95;;;1.80;;
18596;SDS011;9428;50.950;6.912;2024-02-16T00:58:51;3.88;;;1.75;;
18596;SDS011;9428;50.950;6.912;2024-02-16T01:01:38;4.45;;;1.77;;
18596;SDS011;9428;50.950;6.912;2024-02-16T01:04:26;3.45;;;1.95;;
18596;SDS011;9428;50.950;6.912;2024-02-16T01:07:15;4.15;;;1.92;;
18596;SDS011;9428;50.950;6.912;2024-02-16T01:10:03;4.80;;;2.22;;
18596;SDS011;9428;50.950;6.912;2024-02-16T01:12:50;3.53;;;1.70;;
18596;SDS011;9428;50.950;6.912;2024-02-16T01:15:41;3.97;;;2.08;;
18596;SDS011;9428;50.950;6.912;2024-02-16T01:18:32;3.75;;;2.00;;
18596;SDS011;9428;50.950;6.912;2024-02-16T01:21:21;2.80;;;1.98;;
18596;SDS011;9428;50.950;6.912;2024-02-16T01:24:09;5.10;;;1.92;;
18596;SDS011;9428;50.950;6.912;2024-02-16T01:26:57;3.17;;;1.67;;
18596;SDS011;9428;50.950;6.912;2024-02-16T01:29:44;3.22;;;2.08;;
18596;SDS011;9428;50.950;6.912;2024-02-16T01:32:36;4.40;;;1.90;;
18596;SDS011;9428;50.950;6.912;2024-02-16T01:35:26;6.00;;;1.90;;
18596;SDS011;9428;50.950;6.912;2024-02-16T01:38:13;4.90;;;1.95;;
18596;SDS011;9428;50.950;6.912;2024-02-16T01:41:01;3.15;;;1.80;;
18596;SDS011;9428;50.950;6.912;2024-02-16T01:43:51;5.30;;;2.00;;
18596;SDS011;9428;50.950;6.912;2024-02-16T01:46:40;3.25;;;1.83;;
18596;SDS011;9428;50.950;6.912;2024-02-16T01:49:29;4.68;;;1.60;;
18596;SDS011;9428;50.950;6.912;2024-02-16T01:52:16;5.47;;;1.67;;
18596;SDS011;9428;50.950;6.912;2024-02-16T01:55:04;5.25;;;2.05;;
18596;SDS011;9428;50.950;6.912;2024-02-16T01:57:54;3.78;;;1.77;;
18596;SDS011;9428;50.950;6.912;2024-02-16T02:00:44;1.77;;;1.20;;
18596;SDS011;9428;50.950;6.912;2024-02-16T02:03:31;2.10;;;1.42;;
18596;SDS011;9428;50.950;6.912;2024-02-16T02:06:21;1.85;;;1.25;;
18596;SDS011;9428;50.950;6.912;2024-02-16T02:09:09;5.18;;;1.60;;
18596;SDS011;9428;50.950;6.912;2024-02-16T02:11:56;2.17;;;1.42;;
18596;SDS011;9428;50.950;6.912;2024-02-16T02:14:44;7.72;;;2.20;;
18596;SDS011;9428;50.950;6.912;2024-02-16T02:17:34;3.80;;;1.77;;
18596;SDS011;9428;50.950;6.912;2024-02-16T02:20:22;2.65;;;1.70;;
18596;SDS011;9428;50.950;6.912;2024-02-16T02:23:11;3.63;;;1.75;;
18596;SDS011;9428;50.950;6.912;2024-02-16T02:25:58;3.08;;;1.77;;
18596;SDS011;9428;50.950;6.912;2024-02-16T02:28:46;5.35;;;1.90;;
18596;SDS011;9428;50.950;6.912;2024-02-16T02:31:33;5.25;;;2.00;;
18596;SDS011;9428;50.950;6.912;2024-02-16T02:34:21;3.63;;;1.77;;
18596;SDS011;9428;50.950;6.912;2024-02-16T02:37:08;4.05;;;1.70;;
18596;SDS011;9428;50.950;6.912;2024-02-16T02:39:57;3.83;;;1.40;;
18596;SDS011;9428;50.950;6.912;2024-02-16T02:42:44;3.65;;;1.83;;
18596;SDS011;9428;50.950;6.912;2024-02-16T02:45:32;4.88;;;1.80;;
18596;SDS011;9428;50.950;6.912;2024-02-16T02:48:19;4.20;;;1.70;;
18596;SDS011;9428;50.950;6.912;2024-02-16T02:51:06;3.38;;;1.95;;
18596;SDS011;9428;50.950;6.912;2024-02-16T02:53:55;5.03;;;1.88;;
18596;SDS011;9428;50.950;6.912;2024-02-16T02:56:43;3.38;;;1.83;;
18596;SDS011;9428;50.950;6.912;2024-02-16T02:59:31;3.85;;;2.17;;
18596;SDS011;9428;50.950;6.912;2024-02-16T03:02:18;2.28;;;1.63;;
18596;SDS011;9428;50.950;6.912;2024-02-16T03:05:06;2.55;;;1.60;;
18596;SDS011;9428;50.950;6.912;2024-02-16T03:07:54;3.28;;;1.63;;
18596;SDS011;9428;50.950;6.912;2024-02-16T03:10:41;1.50;;;1.30;;
18596;SDS011;9428;50.950;6.912;2024-02-16T03:13:31;6.10;;;2.10;;
18596;SDS011;9428;50.950;6.912;2024-02-16T03:16:18;2.95;;;2.10;;
18596;SDS011;9428;50.950;6.912;2024-02-16T03:19:06;6.05;;;2.17;;
18596;SDS011;9428;50.950;6.912;2024-02-16T03:21:54;5.55;;;2.30;;
18596;SDS011;9428;50.950;6.912;2024-02-16T03:24:41;5.85;;;1.65;;
18596;SDS011;9428;50.950;6.912;2024-02-16T03:27:30;4.57;;;2.05;;
18596;SDS011;9428;50.950;6.912;2024-02-16T03:30:20;3.03;;;1.90;;
18596;SDS011;9428;50.950;6.912;2024-02-16T03:33:10;2.28;;;1.60;;
18596;SDS011;9428;50.950;6.912;2024-02-16T03:35:58;4.30;;;1.73;;
18596;SDS011;9428;50.950;6.912;2024-02-16T03:38:46;4.15;;;2.03;;
18596;SDS011;9428;50.950;6.912;2024-02-16T03:41:35;4.20;;;1.90;;
18596;SDS011;9428;50.950;6.912;2024-02-16T03:44:23;3.38;;;1.58;;
18596;SDS011;9428;50.950;6.912;2024-02-16T03:47:11;4.97;;;1.88;;
18596;SDS011;9428;50.950;6.912;2024-02-16T03:49:59;2.90;;;1.85;;
18596;SDS011;9428;50.950;6.912;2024-02-16T03:52:46;5.95;;;2.15;;
18596;SDS011;9428;50.950;6.912;2024-02-16T03:55:34;2.63;;;1.63;;
18596;SDS011;9428;50.950;6.912;2024-02-16T03:58:22;3.22;;;1.73;;
18596;SDS011;9428;50.950;6.912;2024-02-16T04:01:09;2.70;;;1.60;;
18596;SDS011;9428;50.950;6.912;2024-02-16T04:03:58;3.70;;;2.00;;
18596;SDS011;9428;50.950;6.912;2024-02-16T04:06:45;4.32;;;1.75;;
18596;SDS011;9428;50.950;6.912;2024-02-16T04:09:33;6.78;;;1.95;;
18596;SDS011;9428;50.950;6.912;2024-02-16T04:12:21;3.85;;;1.90;;
18596;SDS011;9428;50.950;6.912;2024-02-16T04:15:08;3.22;;;1.77;;
18596;SDS011;9428;50.950;6.912;2024-02-16T04:17:56;2.55;;;1.65;;
18596;SDS011;9428;50.950;6.912;2024-02-16T04:20:45;3.65;;;2.05;;
18596;SDS011;9428;50.950;6.912;2024-02-16T04:23:32;3.70;;;2.00;;
18596;SDS011;9428;50.950;6.912;2024-02-16T04:26:20;2.95;;;1.90;;
18596;SDS011;9428;50.950;6.912;2024-02-16T04:29:07;2.72;;;1.63;;
18596;SDS011;9428;50.950;6.912;2024-02-16T04:31:55;5.28;;;2.47;;
18596;SDS011;9428;50.950;6.912;2024-02-16T04:34:42;4.90;;;1.95;;
18596;SDS011;9428;50.950;6.912;2024-02-16T04:37:31;3.00;;;2.10;;
18596;SDS011;9428;50.950;6.912;2024-02-16T04:40:19;6.93;;;1.85;;
18596;SDS011;9428;50.950;6.912;2024-02-16T04:43:06;3.47;;;1.98;;
18596;SDS011;9428;50.950;6.912;2024-02-16T04:45:56;4.63;;;2.22;;
18596;SDS011;9428;50.950;6.912;2024-02-16T04:48:45;3.70;;;2.13;;
18596;SDS011;9428;50.950;6.912;2024-02-16T04:51:33;4.80;;;2.13;;
18596;SDS011;9428;50.950;6.912;2024-02-16T04:54:26;5.50;;;2.20;;
18596;SDS011;9428;50.950;6.912;2024-02-16T04:57:13;6.95;;;2.10;;
18596;SDS011;9428;50.950;6.912;2024-02-16T05:00:04;2.63;;;1.77;;
18596;SDS011;9428;50.950;6.912;2024-02-16T05:02:54;3.50;;;2.22;;
18596;SDS011;9428;50.950;6.912;2024-02-16T05:05:42;5.50;;;2.15;;
18596;SDS011;9428;50.950;6.912;2024-02-16T05:08:31;5.25;;;2.33;;
18596;SDS011;9428;50.950;6.912;2024-02-16T05:11:20;5.47;;;1.90;;
18596;SDS011;9428;50.950;6.912;2024-02-16T05:14:10;3.83;;;2.03;;
18596;SDS011;9428;50.950;6.912;2024-02-16T05:16:58;4.93;;;2.20;;
18596;SDS011;9428;50.950;6.912;2024-02-16T05:19:45;4.65;;;2.00;;
18596;SDS011;9428;50.950;6.912;2024-02-16T05:22:35;3.60;;;1.83;;
18596;SDS011;9428;50.950;6.912;2024-02-16T05:25:23;3.70;;;2.00;;
18596;SDS011;9428;50.950;6.912;2024-02-16T05:28:12;2.60;;;2.10;;
18596;SDS011;9428;50.950;6.912;2024-02-16T05:31:00;8.15;;;2.00;;
18596;SDS011;9428;50.950;6.912;2024-02-16T05:34:00;5.75;;;2.28;;
18596;SDS011;9428;50.950;6.912;2024-02-16T05:36:50;3.00;;;1.80;;
18596;SDS011;9428;50.950;6.912;2024-02-16T05:39:40;4.18;;;1.80;;
18596;SDS011;9428;50.950;6.912;2024-02-16T05:42:39;7.00;;;2.20;;
18596;SDS011;9428;50.950;6.912;2024-02-16T05:45:27;4.70;;;2.55;;
18596;SDS011;9428;50.950;6.912;2024-02-16T05:48:15;3.25;;;2.08;;
18596;SDS011;9428;50.950;6.912;2024-02-16T05:51:06;3.40;;;2.20;;
18596;SDS011;9428;50.950;6.912;2024-02-16T05:53:54;4.93;;;2.40;;
18596;SDS011;9428;50.950;6.912;2024-02-16T05:56:41;5.15;;;1.83;;
18596;SDS011;9428;50.950;6.912;2024-02-16T05:59:29;4.82;;;2.13;;
18596;SDS011;9428;50.950;6.912;2024-02-16T06:02:19;4.75;;;2.30;;
18596;SDS011;9428;50.950;6.912;2024-02-16T06:05:06;3.47;;;2.10;;
18596;SDS011;9428;50.950;6.912;2024-02-16T06:07:54;3.97;;;1.90;;
18596;SDS011;9428;50.950;6.912;2024-02-16T06:10:42;4.22;;;2.42;;
18596;SDS011;9428;50.950;6.912;2024-02-16T06:13:36;4.95;;;2.03;;
18596;SDS011;9428;50.950;6.912;2024-02-16T06:16:24;3.20;;;1.83;;
18596;SDS011;9428;50.950;6.912;2024-02-16T06:19:13;4.75;;;2.10;;
18596;SDS011;9428;50.950;6.912;2024-02-16T06:22:01;6.13;;;2.25;;
18596;SDS011;9428;50.950;6.912;2024-02-16T06:24:49;6.25;;;2.10;;
18596;SDS011;9428;50.950;6.912;2024-02-16T06:27:36;3.75;;;1.85;;
18596;SDS011;9428;50.950;6.912;2024-02-16T06:30:25;2.85;;;1.67;;
18596;SDS011;9428;50.950;6.912;2024-02-16T06:33:13;3.47;;;2.13;;
18596;SDS011;9428;50.950;6.912;2024-02-16T06:36:02;4.25;;;1.77;;
18596;SDS011;9428;50.950;6.912;2024-02-16T06:38:50;4.25;;;2.28;;
18596;SDS011;9428;50.950;6.912;2024-02-16T06:41:37;7.57;;;2.13;;
18596;SDS011;9428;50.950;6.912;2024-02-16T06:44:25;4.10;;;1.90;;
18596;SDS011;9428;50.950;6.912;2024-02-16T06:47:15;5.13;;;2.30;;
18596;SDS011;9428;50.950;6.912;2024-02-16T06:50:04;6.75;;;2.63;;
18596;SDS011;9428;50.950;6.912;2024-02-16T06:52:53;5.97;;;2.33;;
18596;SDS011;9428;50.950;6.912;2024-02-16T06:55:41;4.07;;;2.30;;
18596;SDS011;9428;50.950;6.912;2024-02-16T06:58:29;2.25;;;1.75;;
18596;SDS011;9428;50.950;6.912;2024-02-16T07:01:16;5.13;;;2.42;;
18596;SDS011;9428;50.950;6.912;2024-02-16T07:04:04;6.63;;;2.50;;
18596;SDS011;9428;50.950;6.912;2024-02-16T07:06:51;8.30;;;2.35;;
18596;SDS011;9428;50.950;6.912;2024-02-16T07:09:40;4.18;;;2.40;;
18596;SDS011;9428;50.950;6.912;2024-02-16T07:12:27;6.22;;;2.92;;
18596;SDS011;9428;50.950;6.912;2024-02-16T07:15:15;6.57;;;2.50;;
18596;SDS011;9428;50.950;6.912;2024-02-16T07:18:02;4.63;;;2.08;;
18596;SDS011;9428;50.950;6.912;2024-02-16T07:20:50;5.22;;;2.58;;
18596;SDS011;9428;50.950;6.912;2024-02-16T07:23:37;4.53;;;2.30;;
18596;SDS011;9428;50.950;6.912;2024-02-16T07:26:26;5.00;;;2.45;;
18596;SDS011;9428;50.950;6.912;2024-02-16T07:29:19;5.95;;;2.05;;
18596;SDS011;9428;50.950;6.912;2024-02-16T07:32:07;4.93;;;2.25;;
18596;SDS011;9428;50.950;6.912;2024-02-16T07:34:54;4.22;;;2.40;;
18596;SDS011;9428;50.950;6.912;2024-02-16T07:37:42;3.90;;;2.20;;
18596;SDS011;9428;50.950;6.912;2024-02-16T07:40:29;5.32;;;2.08;;
18596;SDS011;9428;50.950;6.912;2024-02-16T07:43:18;5.85;;;2.10;;
18596;SDS011;9428;50.950;6.912;2024-02-16T07:46:07;5.25;;;2.95;;
18596;SDS011;9428;50.950;6.912;2024-02-16T07:48:54;4.32;;;2.50;;
18596;SDS011;9428;50.950;6.912;2024-02-16T07:51:42;3.78;;;2.00;;
18596;SDS011;9428;50.950;6.912;2024-02-16T07:54:29;5.47;;;2.40;;
18596;SDS011;9428;50.950;6.912;2024-02-16T07:57:17;6.30;;;3.03;;
18596;SDS011;9428;50.950;6.912;2024-02-16T08:00:06;8.52;;;2.72;;
18596;SDS011;9428;50.950;6.912;2024-02-16T08:02:56;7.63;;;2.22;;
18596;SDS011;9428;50.950;6.912;2024-02-16T08:05:43;3.75;;;2.17;;
18596;SDS011;9428;50.950;6.912;2024-02-16T08:08:31;4.47;;;2.40;;
18596;SDS011;9428;50.950;6.912;2024-02-16T08:11:20;4.35;;;2.42;;
18596;SDS011;9428;50.950;6.912;2024-02-16T08:14:08;3.35;;;2.35;;
18596;SDS011;9428;50.950;6.912;2024-02-16T08:16:57;5.88;;;2.42;;
18596;SDS011;9428;50.950;6.912;2024-02-16T08:19:50;8.55;;;2.83;;
18596;SDS011;9428;50.950;6.912;2024-02-16T08:22:39;3.15;;;2.20;;
18596;SDS011;9428;50.950;6.912;2024-02-16T08:25:26;4.22;;;2.35;;
18596;SDS011;9428;50.950;6.912;2024-02-16T08:28:18;4.65;;;2.53;;
18596;SDS011;9428;50.950;6.912;2024-02-16T08:31:08;9.07;;;2.97;;
18596;SDS011;9428;50.950;6.912;2024-02-16T08:33:57;5.80;;;2.50;;
18596;SDS011;9428;50.950;6.912;2024-02-16T08:36:45;8.02;;;2.70;;
18596;SDS011;9428;50.950;6.912;2024-02-16T08:39:33;6.03;;;2.60;;
18596;SDS011;9428;50.950;6.912;2024-02-16T08:42:21;6.40;;;2.17;;
18596;SDS011;9428;50.950;6.912;2024-02-16T08:45:09;4.95;;;2.63;;
18596;SDS011;9428;50.950;6.912;2024-02-16T08:47:57;7.90;;;2.58;;
18596;SDS011;9428;50.950;6.912;2024-02-16T08:50:48;8.10;;;2.83;;
18596;SDS011;9428;50.950;6.912;2024-02-16T08:53:36;6.68;;;2.80;;
18596;SDS011;9428;50.950;6.912;2024-02-16T08:56:23;2.83;;;1.98;;
18596;SDS011;9428;50.950;6.912;2024-02-16T08:59:10;6.50;;;2.67;;
18596;SDS011;9428;50.950;6.912;2024-02-16T09:01:58;4.10;;;2.38;;
18596;SDS011;9428;50.950;6.912;2024-02-16T09:04:45;5.43;;;2.50;;
18596;SDS011;9428;50.950;6.912;2024-02-16T09:07:34;4.55;;;2.20;;
18596;SDS011;9428;50.950;6.912;2024-02-16T09:10:22;4.97;;;2.72;;
18596;SDS011;9428;50.950;6.912;2024-02-16T09:13:09;7.55;;;3.03;;
18596;SDS011;9428;50.950;6.912;2024-02-16T09:15:57;6.03;;;2.97;;
18596;SDS011;9428;50.950;6.912;2024-02-16T09:18:45;6.60;;;2.80;;
18596;SDS011;9428;50.950;6.912;2024-02-16T09:21:33;9.68;;;5.25;;
18596;SDS011;9428;50.950;6.912;2024-02-16T09:24:22;7.90;;;3.70;;
18596;SDS011;9428;50.950;6.912;2024-02-16T09:27:13;4.95;;;2.95;;
18596;SDS011;9428;50.950;6.912;2024-02-16T09:30:05;4.53;;;2.67;;
18596;SDS011;9428;50.950;6.912;2024-02-16T09:32:56;7.15;;;2.63;;
18596;SDS011;9428;50.950;6.912;2024-02-16T09:35:43;8.48;;;2.40;;
18596;SDS011;9428;50.950;6.912;2024-02-16T09:38:30;6.63;;;2.92;;
18596;SDS011;9428;50.950;6.912;2024-02-16T09:41:19;6.75;;;2.83;;
18596;SDS011;9428;50.950;6.912;2024-02-16T09:44:07;7.47;;;3.15;;
18596;SDS011;9428;50.950;6.912;2024-02-16T09:46:55;8.45;;;2.85;;
18596;SDS011;9428;50.950;6.912;2024-02-16T09:49:43;6.68;;;2.55;;
18596;SDS011;9428;50.950;6.912;2024-02-16T09:52:31;6.47;;;2.65;;
18596;SDS011;9428;50.950;6.912;2024-02-16T09:55:18;6.40;;;2.95;;
18596;SDS011;9428;50.950;6.912;2024-02-16T09:58:09;6.40;;;2.33;;
18596;SDS011;9428;50.950;6.912;2024-02-16T10:01:02;5.18;;;2.55;;
18596;SDS011;9428;50.950;6.912;2024-02-16T10:03:50;5.70;;;3.00;;
18596;SDS011;9428;50.950;6.912;2024-02-16T10:06:46;8.77;;;3.03;;
18596;SDS011;9428;50.950;6.912;2024-02-16T10:09:34;8.10;;;2.78;;
18596;SDS011;9428;50.950;6.912;2024-02-16T10:12:22;7.50;;;3.03;;
18596;SDS011;9428;50.950;6.912;2024-02-16T10:15:10;6.68;;;3.08;;
18596;SDS011;9428;50.950;6.912;2024-02-16T10:17:58;6.47;;;2.78;;
18596;SDS011;9428;50.950;6.912;2024-02-16T10:20:45;6.80;;;2.97;;
18596;SDS011;9428;50.950;6.912;2024-02-16T10:23:33;8.65;;;3.08;;
18596;SDS011;9428;50.950;6.912;2024-02-16T10:26:20;12.00;;;3.47;;
18596;SDS011;9428;50.950;6.912;2024-02-16T10:29:09;5.43;;;2.72;;
18596;SDS011;9428;50.950;6.912;2024-02-16T10:32:00;6.35;;;2.42;;
18596;SDS011;9428;50.950;6.912;2024-02-16T10:34:48;6.30;;;2.97;;
18596;SDS011;9428;50.950;6.912;2024-02-16T10:37:37;7.22;;;2.92;;
18596;SDS011;9428;50.950;6.912;2024-02-16T10:40:25;6.28;;;2.88;;
18596;SDS011;9428;50.950;6.912;2024-02-16T10:43:14;4.90;;;2.67;;
18596;SDS011;9428;50.950;6.912;2024-02-16T10:46:03;7.28;;;2.92;;
18596;SDS011;9428;50.950;6.912;2024-02-16T10:48:53;7.63;;;3.08;;
18596;SDS011;9428;50.950;6.912;2024-02-16T10:51:41;10.30;;;3.28;;
18596;SDS011;9428;50.950;6.912;2024-02-16T10:54:33;4.80;;;2.78;;
18596;SDS011;9428;50.950;6.912;2024-02-16T10:57:23;4.60;;;2.90;;
18596;SDS011;9428;50.950;6.912;2024-02-16T11:00:11;10.68;;;3.60;;
18596;SDS011;9428;50.950;6.912;2024-02-16T11:03:03;8.55;;;3.60;;
18596;SDS011;9428;50.950;6.912;2024-02-16T11:05:53;8.75;;;3.60;;
18596;SDS011;9428;50.950;6.912;2024-02-16T11:08:43;10.18;;;3.45;;
18596;SDS011;9428;50.950;6.912;2024-02-16T11:11:30;8.23;;;3.45;;
18596;SDS011;9428;50.950;6.912;2024-02-16T11:14:21;9.57;;;4.32;;
18596;SDS011;9428;50.950;6.912;2024-02-16T11:17:10;9.25;;;4.38;;
18596;SDS011;9428;50.950;6.912;2024-02-16T11:19:59;9.93;;;4.35;;
18596;SDS011;9428;50.950;6.912;2024-02-16T11:22:49;8.55;;;3.85;;
18596;SDS011;9428;50.950;6.912;2024-02-16T11:25:38;10.40;;;4.82;;
18596;SDS011;9428;50.950;6.912;2024-02-16T11:28:26;11.43;;;5.47;;
18596;SDS011;9428;50.950;6.912;2024-02-16T11:31:14;16.92;;;6.15;;
18596;SDS011;9428;50.950;6.912;2024-02-16T11:34:02;9.48;;;4.65;;
18596;SDS011;9428;50.950;6.912;2024-02-16T11:36:51;10.52;;;4.70;;
18596;SDS011;9428;50.950;6.912;2024-02-16T11:39:41;17.75;;;5.50;;
18596;SDS011;9428;50.950;6.912;2024-02-16T11:42:30;11.73;;;5.03;;
18596;SDS011;9428;50.950;6.912;2024-02-16T11:45:17;9.20;;;4.10;;
18596;SDS011;9428;50.950;6.912;2024-02-16T11:48:05;9.75;;;4.25;;
18596;SDS011;9428;50.950;6.912;2024-02-16T11:50:59;8.68;;;3.95;;
18596;SDS011;9428;50.950;6.912;2024-02-16T11:53:54;9.60;;;4.40;;
18596;SDS011;9428;50.950;6.912;2024-02-16T11:56:44;7.95;;;3.90;;
18596;SDS011;9428;50.950;6.912;2024-02-16T11:59:31;9.80;;;3.50;;
18596;SDS011;9428;50.950;6.912;2024-02-16T12:02:19;7.68;;;3.67;;
18596;SDS011;9428;50.950;6.912;2024-02-16T12:05:07;8.95;;;4.65;;
18596;SDS011;9428;50.950;6.912;2024-02-16T12:07:57;13.55;;;4.38;;
18596;SDS011;9428;50.950;6.912;2024-02-16T12:10:46;8.60;;;4.03;;
18596;SDS011;9428;50.950;6.912;2024-02-16T12:13:35;7.55;;;3.83;;
18596;SDS011;9428;50.950;6.912;2024-02-16T12:16:22;9.52;;;4.28;;
18596;SDS011;9428;50.950;6.912;2024-02-16T12:19:12;8.40;;;3.80;;
18596;SDS011;9428;50.950;6.912;2024-02-16T12:21:59;7.15;;;4.00;;
18596;SDS011;9428;50.950;6.912;2024-02-16T12:24:46;9.40;;;5.18;;
18596;SDS011;9428;50.950;6.912;2024-02-16T12:27:34;11.88;;;4.47;;
18596;SDS011;9428;50.950;6.912;2024-02-16T12:30:23;6.57;;;4.18;;
18596;SDS011;9428;50.950;6.912;2024-02-16T12:33:10;9.35;;;4.53;;
18596;SDS011;9428;50.950;6.912;2024-02-16T12:35:58;8.95;;;3.83;;
18596;SDS011;9428;50.950;6.912;2024-02-16T12:38:45;5.28;;;2.90;;
18596;SDS011;9428;50.950;6.912;2024-02-16T12:41:33;8.63;;;4.10;;
18596;SDS011;9428;50.950;6.912;2024-02-16T12:44:21;7.50;;;3.20;;
18596;SDS011;9428;50.950;6.912;2024-02-16T12:47:09;7.53;;;3.65;;
18596;SDS011;9428;50.950;6.912;2024-02-16T12:49:57;12.65;;;4.00;;
18596;SDS011;9428;50.950;6.912;2024-02-16T12:52:44;7.68;;;3.28;;
18596;SDS011;9428;50.950;6.912;2024-02-16T12:55:31;7.60;;;3.75;;
18596;SDS011;9428;50.950;6.912;2024-02-16T12:58:19;12.05;;;4.07;;
18596;SDS011;9428;50.950;6.912;2024-02-16T13:01:06;7.82;;;4.03;;
18596;SDS011;9428;50.950;6.912;2024-02-16T13:03:55;10.70;;;4.78;;
18596;SDS011;9428;50.950;6.912;2024-02-16T13:06:42;8.27;;;5.13;;
18596;SDS011;9428;50.950;6.912;2024-02-16T13:09:30;15.35;;;8.77;;
18596;SDS011;9428;50.950;6.912;2024-02-16T13:12:17;12.00;;;7.40;;
18596;SDS011;9428;50.950;6.912;2024-02-16T13:15:08;11.73;;;6.93;;
18596;SDS011;9428;50.950;6.912;2024-02-16T13:17:55;11.85;;;6.32;;
18596;SDS011;9428;50.950;6.912;2024-02-16T13:20:44;9.55;;;5.60;;
18596;SDS011;9428;50.950;6.912;2024-02-16T13:23:33;12.73;;;5.20;;
18596;SDS011;9428;50.950;6.912;2024-02-16T13:26:20;8.80;;;4.38;;
18596;SDS011;9428;50.950;6.912;2024-02-16T13:29:07;9.30;;;4.40;;
18596;SDS011;9428;50.950;6.912;2024-02-16T13:31:55;7.18;;;4.00;;
18596;SDS011;9428;50.950;6.912;2024-02-16T13:34:42;8.68;;;4.05;;
18596;SDS011;9428;50.950;6.912;2024-02-16T13:37:31;10.77;;;4.13;;
18596;SDS011;9428;50.950;6.912;2024-02-16T13:40:18;10.38;;;3.75;;
18596;SDS011;9428;50.950;6.912;2024-02-16T13:43:06;7.55;;;4.13;;
18596;SDS011;9428;50.950;6.912;2024-02-16T13:45:54;10.10;;;4.78;;
18596;SDS011;9428;50.950;6.912;2024-02-16T13:48:44;9.02;;;3.92;;
18596;SDS011;9428;50.950;6.912;2024-02-16T13:51:31;8.70;;;4.72;;
18596;SDS011;9428;50.950;6.912;2024-02-16T13:54:19;9.23;;;4.32;;
18596;SDS011;9428;50.950;6.912;2024-02-16T13:57:08;7.30;;;3.83;;
18596;SDS011;9428;50.950;6.912;2024-02-16T13:59:56;7.82;;;3.33;;
18596;SDS011;9428;50.950;6.912;2024-02-16T14:02:43;6.32;;;3.78;;
18596;SDS011;9428;50.950;6.912;2024-02-16T14:05:33;6.05;;;2.95;;
18596;SDS011;9428;50.950;6.912;2024-02-16T14:08:21;12.77;;;3.80;;
18596;SDS011;9428;50.950;6.912;2024-02-16T14:11:09;10.38;;;4.10;;
18596;SDS011;9428;50.950;6.912;2024-02-16T14:13:57;10.02;;;3.95;;
18596;SDS011;9428;50.950;6.912;2024-02-16T14:16:44;11.80;;;4.13;;
18596;SDS011;9428;50.950;6.912;2024-02-16T14:19:32;12.13;;;4.32;;
18596;SDS011;9428;50.950;6.912;2024-02-16T14:22:22;7.05;;;4.00;;
18596;SDS011;9428;50.950;6.912;2024-02-16T14:25:11;9.43;;;3.88;;
18596;SDS011;9428;50.950;6.912;2024-02-16T14:28:03;7.75;;;4.32;;
18596;SDS011;9428;50.950;6.912;2024-02-16T14:30:51;6.47;;;4.65;;
18596;SDS011;9428;50.950;6.912;2024-02-16T14:33:38;9.38;;;4.32;;
18596;SDS011;9428;50.950;6.912;2024-02-16T14:36:26;6.85;;;4.10;;
18596;SDS011;9428;50.950;6.912;2024-02-16T14:39:13;6.65;;;4.40;;
18596;SDS011;9428;50.950;6.912;2024-02-16T14:42:01;6.82;;;4.45;;
18596;SDS011;9428;50.950;6.912;2024-02-16T14:44:50;6.45;;;4.15;;
18596;SDS011;9428;50.950;6.912;2024-02-16T14:47:40;6.30;;;4.28;;
18596;SDS011;9428;50.950;6.912;2024-02-16T14:50:28;8.75;;;5.15;;
18596;SDS011;9428;50.950;6.912;2024-02-16T14:53:15;7.75;;;6.22;;
18596;SDS011;9428;50.950;6.912;2024-02-16T14:56:03;12.70;;;8.00;;
18596;SDS011;9428;50.950;6.912;2024-02-16T14:58:51;8.77;;;6.72;;
18596;SDS011;9428;50.950;6.912;2024-02-16T15:01:40;10.90;;;7.38;;
18596;SDS011;9428;50.950;6.912;2024-02-16T15:04:27;9.98;;;6.93;;
18596;SDS011;9428;50.950;6.912;2024-02-16T15:07:16;10.50;;;6.63;;
18596;SDS011;9428;50.950;6.912;2024-02-16T15:10:04;11.23;;;8.13;;
18596;SDS011;9428;50.950;6.912;2024-02-16T15:12:52;13.02;;;7.50;;
18596;SDS011;9428;50.950;6.912;2024-02-16T15:15:39;12.63;;;7.95;;
18596;SDS011;9428;50.950;6.912;2024-02-16T15:18:28;13.13;;;7.72;;
18596;SDS011;9428;50.950;6.912;2024-02-16T15:21:16;11.25;;;7.32;;
18596;SDS011;9428;50.950;6.912;2024-02-16T15:24:03;9.32;;;7.20;;
18596;SDS011;9428;50.950;6.912;2024-02-16T15:26:54;12.40;;;7.22;;
18596;SDS011;9428;50.950;6.912;2024-02-16T15:29:44;12.80;;;7.55;;
18596;SDS011;9428;50.950;6.912;2024-02-16T15:32:31;12.05;;;8.27;;
18596;SDS011;9428;50.950;6.912;2024-02-16T15:35:20;13.88;;;7.25;;
18596;SDS011;9428;50.950;6.912;2024-02-16T15:38:08;8.10;;;6.82;;
18596;SDS011;9428;50.950;6.912;2024-02-16T15:40:56;11.02;;;7.70;;
18596;SDS011;9428;50.950;6.912;2024-02-16T15:43:43;16.00;;;7.78;;
18596;SDS011;9428;50.950;6.912;2024-02-16T15:46:33;12.88;;;7.78;;
18596;SDS011;9428;50.950;6.912;2024-02-16T15:49:28;12.07;;;8.10;;
18596;SDS011;9428;50.950;6.912;2024-02-16T15:52:17;11.93;;;8.10;;
18596;SDS011;9428;50.950;6.912;2024-02-16T15:55:04;10.93;;;8.45;;
18596;SDS011;9428;50.950;6.912;2024-02-16T15:57:52;11.60;;;6.22;;
18596;SDS011;9428;50.950;6.912;2024-02-16T16:00:39;10.20;;;5.70;;
18596;SDS011;9428;50.950;6.912;2024-02-16T16:03:28;5.97;;;5.30;;
18596;SDS011;9428;50.950;6.912;2024-02-16T16:06:16;6.82;;;4.95;;
18596;SDS011;9428;50.950;6.912;2024-02-16T16:09:05;6.38;;;4.10;;
18596;SDS011;9428;50.950;6.912;2024-02-16T16:11:54;5.88;;;4.32;;
18596;SDS011;9428;50.950;6.912;2024-02-16T16:14:41;6.95;;;4.50;;
18596;SDS011;9428;50.950;6.912;2024-02-16T16:17:29;7.72;;;5.25;;
18596;SDS011;9428;50.950;6.912;2024-02-16T16:20:17;7.03;;;5.15;;
18596;SDS011;9428;50.950;6.912;2024-02-16T16:23:04;5.30;;;4.72;;
18596;SDS011;9428;50.950;6.912;2024-02-16T16:25:53;6.43;;;4.22;;
18596;SDS011;9428;50.950;6.912;2024-02-16T16:28:40;7.55;;;4.70;;
18596;SDS011;9428;50.950;6.912;2024-02-16T16:31:28;10.10;;;8.05;;
18596;SDS011;9428;50.950;6.912;2024-02-16T16:34:17;5.97;;;4.78;;
18596;SDS011;9428;50.950;6.912;2024-02-16T16:37:05;8.10;;;4.82;;
18596;SDS011;9428;50.950;6.912;2024-02-16T16:39:55;6.68;;;4.13;;
18596;SDS011;9428;50.950;6.912;2024-02-16T16:42:44;6.07;;;4.50;;
18596;SDS011;9428;50.950;6.912;2024-02-16T16:45:32;5.22;;;4.28;;
18596;SDS011;9428;50.950;6.912;2024-02-16T16:48:20;6.80;;;5.63;;
18596;SDS011;9428;50.950;6.912;2024-02-16T16:51:07;8.93;;;4.90;;
18596;SDS011;9428;50.950;6.912;2024-02-16T16:53:54;6.53;;;4.63;;
18596;SDS011;9428;50.950;6.912;2024-02-16T16:56:42;5.55;;;4.55;;
18596;SDS011;9428;50.950;6.912;2024-02-16T16:59:32;6.30;;;5.13;;
18596;SDS011;9428;50.950;6.912;2024-02-16T17:02:19;6.70;;;5.32;;
18596;SDS011;9428;50.950;6.912;2024-02-16T17:05:07;6.75;;;4.68;;
18596;SDS011;9428;50.950;6.912;2024-02-16T17:07:55;8.27;;;4.95;;
18596;SDS011;9428;50.950;6.912;2024-02-16T17:10:43;7.25;;;5.60;;